Time;durP1;ratioP1;P1;durP2;ratioP2;P2;SDS_P1;SDS_P2;PMS_P1;PMS_P2;Temp;Humidity;BMP_temperature;BMP_pressure;BME280_temperature;BME280_humidity;BME280_pressure;Samples;Min_cycle;Max_cycle;Signal;HPM_P1;HPM_P2
2023/12/13 00:01:25;;;;;;;5.83;0.97;;;8.40;99.90;;;;;;5124528;28;20196;-80
2023/12/13 00:03:51;;;;;;;2.53;0.80;;;8.40;99.90;;;;;;5124475;28;20177;-79
2023/12/13 00:06:17;;;;;;;4.47;0.90;;;8.40;99.90;;;;;;5124944;28;20264;-79
2023/12/13 00:08:42;;;;;;;4.93;0.97;;;8.40;99.90;;;;;;5122705;28;20228;-79
2023/12/13 00:11:08;;;;;;;2.43;0.80;;;8.30;99.90;;;;;;5123281;28;20177;-79
2023/12/13 00:13:34;;;;;;;3.57;0.80;;;8.30;99.90;;;;;;5123472;28;20188;-79
2023/12/13 00:16:01;;;;;;;2.80;0.90;;;8.30;99.90;;;;;;5122552;28;20233;-80
2023/12/13 00:18:26;;;;;;;3.33;0.80;;;8.30;99.90;;;;;;5123416;28;20193;-79
2023/12/13 00:20:52;;;;;;;2.27;0.70;;;8.20;99.90;;;;;;5123359;28;20188;-79
2023/12/13 00:23:18;;;;;;;0.70;0.60;;;8.20;99.90;;;;;;5123957;28;20182;-80
2023/12/13 00:25:43;;;;;;;2.17;0.80;;;8.20;99.90;;;;;;5125338;28;20177;-79
2023/12/13 00:28:09;;;;;;;1.17;0.70;;;8.10;99.90;;;;;;5123781;28;20254;-79
2023/12/13 00:30:34;;;;;;;1.20;0.60;;;8.10;99.90;;;;;;5124971;28;20178;-79
2023/12/13 00:33:00;;;;;;;3.50;0.70;;;8.10;99.90;;;;;;5123949;28;20176;-78
2023/12/13 00:35:25;;;;;;;4.37;0.80;;;8.00;99.90;;;;;;5120179;28;20201;-78
2023/12/13 00:37:51;;;;;;;2.40;0.97;;;8.00;99.90;;;;;;5120719;28;20207;-79
2023/12/13 00:40:18;;;;;;;7.07;1.03;;;8.00;99.90;;;;;;5121610;28;20184;-78
2023/12/13 00:42:44;;;;;;;2.57;0.90;;;8.00;99.90;;;;;;5121989;28;20165;-79
2023/12/13 00:45:10;;;;;;;5.57;0.97;;;7.90;99.90;;;;;;5120006;28;20498;-78
2023/12/13 00:47:35;;;;;;;2.10;1.00;;;7.90;99.90;;;;;;5122285;28;20274;-79
2023/12/13 00:50:01;;;;;;;4.43;1.10;;;7.90;99.90;;;;;;5121860;28;20196;-79
2023/12/13 00:52:26;;;;;;;6.83;1.20;;;7.80;99.90;;;;;;5121180;28;20188;-78
2023/12/13 00:54:52;;;;;;;3.23;1.10;;;7.80;99.90;;;;;;5123280;28;20177;-79
2023/12/13 00:57:18;;;;;;;4.03;1.30;;;7.80;99.90;;;;;;5123804;28;20265;-79
2023/12/13 00:59:43;;;;;;;5.63;1.50;;;7.80;99.90;;;;;;5122314;28;20667;-79
2023/12/13 01:02:09;;;;;;;6.47;1.47;;;7.80;99.90;;;;;;5121800;28;20266;-80
2023/12/13 01:04:36;;;;;;;4.43;1.47;;;7.80;99.90;;;;;;5123307;28;20173;-79
2023/12/13 01:07:02;;;;;;;6.33;1.33;;;7.80;99.90;;;;;;5121828;28;20205;-79
2023/12/13 01:09:28;;;;;;;1.67;0.97;;;7.80;99.90;;;;;;5122348;28;20218;-79
2023/12/13 01:11:53;;;;;;;5.83;1.30;;;7.80;99.90;;;;;;5122473;28;20192;-79
2023/12/13 01:14:19;;;;;;;2.73;1.20;;;8.40;99.90;;;;;;5122774;28;20188;-79
2023/12/13 01:16:44;;;;;;;6.33;1.30;;;7.80;99.90;;;;;;5122416;28;20213;-79
2023/12/13 01:19:10;;;;;;;9.07;1.37;;;7.80;99.90;;;;;;5122901;28;20644;-79
2023/12/13 01:21:36;;;;;;;9.80;1.20;;;7.80;99.90;;;;;;5123648;28;20676;-79
2023/12/13 01:24:02;;;;;;;5.77;1.40;;;7.80;99.90;;;;;;5125819;28;20166;-79
2023/12/13 01:26:28;;;;;;;5.90;1.60;;;7.80;99.90;;;;;;5123189;28;20184;-79
2023/12/13 01:28:54;;;;;;;4.23;1.40;;;7.80;99.90;;;;;;5123958;28;20180;-79
2023/12/13 01:31:19;;;;;;;6.07;1.47;;;7.90;99.90;;;;;;5123652;28;20292;-80
2023/12/13 01:33:45;;;;;;;4.20;1.07;;;7.80;99.90;;;;;;5125257;28;20539;-79
2023/12/13 01:36:10;;;;;;;12.47;1.43;;;7.90;99.90;;;;;;5123961;28;20270;-79
2023/12/13 01:38:36;;;;;;;8.80;1.63;;;7.90;99.90;;;;;;5124933;28;20186;-79
2023/12/13 01:41:02;;;;;;;4.70;1.50;;;7.90;99.90;;;;;;5125108;28;20166;-80
2023/12/13 01:43:29;;;;;;;5.27;2.00;;;7.90;99.90;;;;;;5124806;28;20180;-78
2023/12/13 01:45:57;;;;;;;4.87;1.33;;;7.90;99.90;;;;;;5124236;28;20173;-79
2023/12/13 01:48:26;;;;;;;4.60;1.20;;;7.90;99.90;;;;;;5124931;28;20660;-79
2023/12/13 01:50:53;;;;;;;4.37;1.23;;;7.90;99.90;;;;;;5123359;28;20546;-79
2023/12/13 01:53:20;;;;;;;7.30;1.50;;;8.00;99.90;;;;;;5123174;28;20192;-79
2023/12/13 01:55:47;;;;;;;5.87;1.40;;;8.00;99.90;;;;;;5122775;28;20258;-79
2023/12/13 01:58:13;;;;;;;5.27;1.30;;;8.00;99.90;;;;;;5123596;28;20601;-79
2023/12/13 02:00:41;;;;;;;5.47;1.10;;;7.90;99.90;;;;;;5124480;28;20165;-79
2023/12/13 02:03:09;;;;;;;4.47;1.40;;;8.00;99.90;;;;;;5124825;28;20272;-79
2023/12/13 02:05:36;;;;;;;6.33;1.70;;;8.00;99.90;;;;;;5122989;28;20178;-79
2023/12/13 02:08:02;;;;;;;3.00;1.50;;;8.00;99.90;;;;;;5123405;28;20189;-79
2023/12/13 02:10:27;;;;;;;5.23;1.33;;;8.00;99.90;;;;;;5124181;28;20560;-79
2023/12/13 02:12:53;;;;;;;9.33;1.73;;;8.00;99.90;;;;;;5122788;28;20188;-78
2023/12/13 02:15:20;;;;;;;3.87;1.10;;;8.00;99.90;;;;;;5123217;28;20641;-79
2023/12/13 02:17:52;;;;;;;7.50;1.50;;;8.00;99.90;;;;;;5118106;28;20202;-78
2023/12/13 02:20:20;;;;;;;8.60;1.63;;;8.00;99.90;;;;;;5117866;28;20185;-78
2023/12/13 02:22:46;;;;;;;7.80;1.50;;;8.00;99.90;;;;;;5119187;28;20175;-79
2023/12/13 02:25:16;;;;;;;4.63;1.50;;;8.00;99.90;;;;;;5121712;28;20607;-79
2023/12/13 02:27:42;;;;;;;6.10;1.70;;;8.00;99.90;;;;;;5119991;28;20598;-79
2023/12/13 02:30:09;;;;;;;5.80;1.23;;;8.00;99.90;;;;;;5120793;28;20223;-78
2023/12/13 02:32:36;;;;;;;5.03;1.70;;;8.00;99.90;;;;;;5122629;28;20185;-79
2023/12/13 02:35:02;;;;;;;5.50;1.50;;;8.00;99.90;;;;;;5122202;28;20645;-79
2023/12/13 02:37:28;;;;;;;6.50;2.20;;;8.00;99.90;;;;;;5119928;28;20216;-79
2023/12/13 02:39:55;;;;;;;7.50;1.60;;;8.00;99.90;;;;;;5120849;28;20170;-79
2023/12/13 02:42:21;;;;;;;9.17;1.73;;;8.00;99.90;;;;;;5122155;28;20170;-79
2023/12/13 02:44:46;;;;;;;7.13;1.60;;;8.00;99.90;;;;;;5121569;28;20545;-79
2023/12/13 02:47:12;;;;;;;5.77;1.37;;;8.00;99.90;;;;;;5121560;28;20247;-79
2023/12/13 02:49:37;;;;;;;5.83;1.43;;;8.00;99.90;;;;;;5122488;28;20272;-79
2023/12/13 02:52:03;;;;;;;7.97;1.57;;;8.00;99.90;;;;;;5122941;28;20196;-79
2023/12/13 02:54:29;;;;;;;6.53;2.03;;;8.00;99.90;;;;;;5122179;28;20169;-79
2023/12/13 02:56:55;;;;;;;6.07;1.93;;;8.00;99.90;;;;;;5123177;28;20239;-79
2023/12/13 02:59:20;;;;;;;8.50;1.73;;;8.00;99.90;;;;;;5123983;28;20176;-79
2023/12/13 03:01:46;;;;;;;5.73;2.10;;;8.00;99.90;;;;;;5123986;28;20170;-79
2023/12/13 03:04:12;;;;;;;4.80;1.40;;;8.10;99.90;;;;;;5122288;28;20697;-79
2023/12/13 03:06:37;;;;;;;6.17;1.90;;;8.10;99.90;;;;;;5122649;28;20190;-79
2023/12/13 03:09:03;;;;;;;6.00;1.60;;;8.00;99.90;;;;;;5120347;28;20661;-79
2023/12/13 03:11:28;;;;;;;8.30;1.83;;;8.10;99.90;;;;;;5122931;28;20233;-79
2023/12/13 03:13:54;;;;;;;9.10;1.80;;;8.00;99.90;;;;;;5123484;28;20173;-79
2023/12/13 03:16:19;;;;;;;11.13;2.30;;;8.10;99.90;;;;;;5125228;28;20293;-79
2023/12/13 03:18:45;;;;;;;7.53;1.87;;;8.10;99.90;;;;;;5123334;28;20189;-79
2023/12/13 03:21:10;;;;;;;12.13;2.30;;;8.10;99.90;;;;;;5125992;28;20195;-79
2023/12/13 03:23:36;;;;;;;11.03;2.33;;;8.10;99.90;;;;;;5124970;28;20248;-79
2023/12/13 03:26:01;;;;;;;14.67;2.47;;;8.10;99.90;;;;;;5125910;28;20646;-79
2023/12/13 03:28:27;;;;;;;6.13;2.13;;;8.10;99.90;;;;;;5126683;28;20194;-79
2023/12/13 03:30:52;;;;;;;11.00;1.90;;;8.10;99.90;;;;;;5126427;28;20261;-79
2023/12/13 03:33:18;;;;;;;12.23;2.27;;;8.10;99.90;;;;;;5124526;28;20185;-79
2023/12/13 03:35:44;;;;;;;4.77;1.90;;;8.10;99.90;;;;;;5125752;28;20277;-79
2023/12/13 03:38:10;;;;;;;5.40;1.50;;;8.10;99.90;;;;;;5124447;28;20186;-78
2023/12/13 03:40:36;;;;;;;10.37;2.27;;;8.10;99.90;;;;;;5126607;28;20170;-78
2023/12/13 03:43:01;;;;;;;11.80;2.40;;;8.10;99.90;;;;;;5125270;28;20180;-79
2023/12/13 03:45:27;;;;;;;9.07;2.00;;;8.10;99.90;;;;;;5126114;28;20210;-79
2023/12/13 03:47:53;;;;;;;5.83;2.00;;;8.10;99.90;;;;;;5120772;28;20194;-79
2023/12/13 03:50:18;;;;;;;10.00;2.03;;;8.10;99.90;;;;;;5104336;28;20201;-79
2023/12/13 03:52:44;;;;;;;7.33;2.20;;;8.10;99.90;;;;;;5105544;28;20174;-79
2023/12/13 03:55:09;;;;;;;7.13;2.07;;;8.10;99.90;;;;;;5104675;28;20190;-79
2023/12/13 03:57:35;;;;;;;6.80;2.00;;;8.10;99.90;;;;;;5105048;28;20193;-80
2023/12/13 04:00:00;;;;;;;9.10;2.50;;;8.20;99.90;;;;;;5102591;28;20655;-78
2023/12/13 04:02:26;;;;;;;6.07;1.87;;;8.10;99.90;;;;;;5100974;28;20167;-79
2023/12/13 04:04:52;;;;;;;10.43;2.53;;;8.10;99.90;;;;;;5101700;28;20170;-78
2023/12/13 04:07:17;;;;;;;10.70;2.77;;;8.20;99.90;;;;;;5101908;28;20198;-79
2023/12/13 04:09:43;;;;;;;9.73;2.00;;;8.20;99.90;;;;;;5101543;28;20193;-79
2023/12/13 04:12:08;;;;;;;7.10;1.60;;;8.20;99.90;;;;;;5101764;28;20188;-79
2023/12/13 04:14:34;;;;;;;13.90;2.20;;;8.20;99.90;;;;;;5101672;28;20245;-79
2023/12/13 04:16:59;;;;;;;11.13;1.97;;;8.20;99.90;;;;;;5101874;28;20213;-79
2023/12/13 04:19:25;;;;;;;7.40;2.00;;;8.20;99.90;;;;;;5101981;28;20218;-79
2023/12/13 04:21:50;;;;;;;12.03;2.73;;;8.20;99.90;;;;;;5103299;28;20185;-80
2023/12/13 04:24:16;;;;;;;9.63;2.10;;;8.30;99.90;;;;;;5101803;28;20175;-79
2023/12/13 04:26:42;;;;;;;13.00;3.23;;;8.20;99.90;;;;;;5102659;28;20166;-79
2023/12/13 04:29:07;;;;;;;13.27;2.10;;;8.20;99.90;;;;;;5103670;28;20183;-79
2023/12/13 04:31:33;;;;;;;9.13;2.00;;;8.20;99.90;;;;;;5103138;28;20228;-79
2023/12/13 04:33:58;;;;;;;7.47;1.93;;;8.20;99.90;;;;;;5101709;28;20193;-79
2023/12/13 04:36:24;;;;;;;7.63;2.13;;;8.30;99.90;;;;;;5102919;28;20218;-79
2023/12/13 04:38:49;;;;;;;5.23;2.07;;;8.30;99.90;;;;;;5103841;28;20205;-79
2023/12/13 04:41:15;;;;;;;13.83;2.40;;;8.20;99.90;;;;;;5103622;28;20190;-79
2023/12/13 04:43:41;;;;;;;8.97;2.03;;;8.30;99.90;;;;;;5104458;28;20179;-79
2023/12/13 04:46:06;;;;;;;13.10;2.10;;;8.30;99.90;;;;;;5104720;28;20193;-79
2023/12/13 04:48:32;;;;;;;9.30;2.27;;;8.30;99.90;;;;;;5101985;28;20288;-80
2023/12/13 04:50:57;;;;;;;16.47;2.03;;;8.30;99.90;;;;;;5105425;28;20189;-80
2023/12/13 04:53:23;;;;;;;10.33;2.23;;;8.30;99.90;;;;;;5104186;28;20175;-79
2023/12/13 04:55:48;;;;;;;16.13;2.40;;;8.30;99.90;;;;;;5105611;28;20247;-80
2023/12/13 04:58:14;;;;;;;9.60;2.20;;;8.30;99.90;;;;;;5105092;28;20294;-79
2023/12/13 05:00:39;;;;;;;7.83;2.23;;;8.30;99.90;;;;;;5104726;28;20253;-79
2023/12/13 05:03:05;;;;;;;9.07;2.40;;;8.30;99.90;;;;;;5104351;28;20181;-79
2023/12/13 05:05:30;;;;;;;9.93;2.70;;;8.30;99.90;;;;;;5104552;28;20174;-79
2023/12/13 05:07:56;;;;;;;10.47;2.13;;;8.30;99.90;;;;;;5103263;28;20198;-80
2023/12/13 05:10:21;;;;;;;16.20;2.67;;;8.30;99.90;;;;;;5104841;28;20178;-79
2023/12/13 05:12:47;;;;;;;12.97;2.10;;;8.30;99.90;;;;;;5101847;28;20189;-79
2023/12/13 05:15:13;;;;;;;11.40;2.50;;;8.30;99.90;;;;;;5101164;28;20271;-79
2023/12/13 05:17:38;;;;;;;10.70;2.40;;;8.30;99.90;;;;;;5099818;28;20248;-79
2023/12/13 05:20:04;;;;;;;10.10;2.10;;;8.30;99.90;;;;;;5102005;28;20556;-79
2023/12/13 05:22:30;;;;;;;13.03;2.30;;;8.30;99.90;;;;;;5103966;28;20209;-80
2023/12/13 05:24:56;;;;;;;12.90;2.60;;;8.30;99.90;;;;;;5104076;28;20174;-80
2023/12/13 05:27:21;;;;;;;12.83;2.63;;;8.30;99.90;;;;;;5101850;28;20228;-79
2023/12/13 05:29:47;;;;;;;15.87;2.30;;;8.30;99.90;;;;;;5102310;28;20191;-79
2023/12/13 05:32:12;;;;;;;11.63;2.47;;;8.30;99.90;;;;;;5103954;28;20194;-79
2023/12/13 05:34:38;;;;;;;14.60;2.50;;;8.30;99.90;;;;;;5104225;28;20201;-79
2023/12/13 05:37:05;;;;;;;16.93;3.23;;;8.30;99.90;;;;;;5102783;28;20711;-79
2023/12/13 05:39:31;;;;;;;10.97;2.30;;;8.40;99.90;;;;;;5103291;28;20538;-79
2023/12/13 05:41:57;;;;;;;15.33;2.17;;;8.30;99.90;;;;;;5105580;28;20343;-79
2023/12/13 05:44:22;;;;;;;11.93;2.70;;;8.40;99.90;;;;;;5104391;28;20184;-79
2023/12/13 05:46:48;;;;;;;21.23;3.20;;;8.30;99.90;;;;;;5102216;28;20335;-79
2023/12/13 05:49:15;;;;;;;14.13;2.70;;;8.40;99.90;;;;;;5103099;28;20170;-79
2023/12/13 05:51:40;;;;;;;11.60;2.33;;;8.30;99.90;;;;;;5103280;28;20171;-79
2023/12/13 05:54:06;;;;;;;10.90;2.43;;;8.40;99.90;;;;;;5102225;28;20204;-79
2023/12/13 05:56:32;;;;;;;11.07;3.00;;;8.40;99.90;;;;;;5099543;28;20206;-80
2023/12/13 05:58:57;;;;;;;17.80;3.20;;;8.40;99.90;;;;;;5101303;28;20182;-79
2023/12/13 06:01:23;;;;;;;12.63;2.93;;;8.50;99.90;;;;;;5100965;28;20183;-79
2023/12/13 06:03:48;;;;;;;13.13;3.00;;;8.40;99.90;;;;;;5102254;28;20167;-79
2023/12/13 06:06:14;;;;;;;16.60;2.50;;;8.40;99.90;;;;;;5101570;28;20255;-79
2023/12/13 06:08:40;;;;;;;15.20;2.83;;;8.40;99.90;;;;;;5101076;28;20605;-79
2023/12/13 06:11:07;;;;;;;14.50;2.93;;;8.40;99.90;;;;;;5100225;28;20560;-79
2023/12/13 06:13:32;;;;;;;15.70;3.10;;;8.40;99.90;;;;;;5100400;28;20182;-79
2023/12/13 06:15:58;;;;;;;12.00;3.00;;;8.40;99.90;;;;;;5101184;28;20224;-80
2023/12/13 06:18:24;;;;;;;15.73;3.37;;;8.40;99.90;;;;;;5104255;28;20190;-79
2023/12/13 06:20:49;;;;;;;13.50;2.80;;;8.40;99.90;;;;;;5102623;28;20175;-79
2023/12/13 06:23:15;;;;;;;10.40;2.80;;;8.40;99.90;;;;;;5102010;28;20174;-79
2023/12/13 06:25:40;;;;;;;14.03;2.90;;;8.40;99.90;;;;;;5095360;28;20178;-78
2023/12/13 06:28:06;;;;;;;11.07;2.30;;;8.40;99.90;;;;;;5097479;28;20205;-79
2023/12/13 06:30:31;;;;;;;12.57;2.60;;;8.40;99.90;;;;;;5098765;28;20284;-79
2023/12/13 06:32:57;;;;;;;12.73;2.83;;;8.40;99.90;;;;;;5100629;28;20197;-79
2023/12/13 06:35:22;;;;;;;16.23;2.77;;;8.40;99.90;;;;;;5098152;28;20294;-79
2023/12/13 06:37:48;;;;;;;12.27;2.90;;;8.40;99.90;;;;;;5098896;28;20262;-79
2023/12/13 06:40:14;;;;;;;12.63;2.70;;;8.40;99.90;;;;;;5099572;28;20170;-79
2023/12/13 06:42:41;;;;;;;10.40;2.63;;;8.40;99.90;;;;;;5100517;28;20172;-79
2023/12/13 06:45:07;;;;;;;9.63;2.77;;;8.40;99.90;;;;;;5097126;28;20170;-79
2023/12/13 06:47:33;;;;;;;12.30;2.30;;;8.40;99.90;;;;;;5098476;28;20677;-79
2023/12/13 06:49:58;;;;;;;16.83;2.97;;;8.40;99.90;;;;;;5101040;28;20189;-79
2023/12/13 06:52:24;;;;;;;15.17;2.60;;;8.40;99.90;;;;;;5103061;28;20181;-79
2023/12/13 06:54:49;;;;;;;11.20;2.87;;;8.40;99.90;;;;;;5102008;28;20632;-79
2023/12/13 06:57:16;;;;;;;20.20;3.13;;;8.40;99.90;;;;;;5102414;28;20272;-79
2023/12/13 06:59:42;;;;;;;14.87;3.07;;;8.40;99.90;;;;;;5104310;28;20162;-79
2023/12/13 07:02:07;;;;;;;11.87;2.73;;;8.40;99.90;;;;;;5104141;28;20779;-79
2023/12/13 07:04:35;;;;;;;17.63;3.27;;;8.40;99.90;;;;;;5103335;28;20174;-79
2023/12/13 07:07:01;;;;;;;11.80;2.93;;;8.40;99.90;;;;;;5101394;28;20197;-79
2023/12/13 07:09:26;;;;;;;12.83;3.10;;;8.40;99.90;;;;;;5103413;28;20209;-79
2023/12/13 07:11:52;;;;;;;14.47;3.00;;;8.40;99.90;;;;;;5103949;28;20189;-79
2023/12/13 07:14:17;;;;;;;16.03;3.47;;;8.40;99.90;;;;;;5102950;28;20183;-80
2023/12/13 07:16:43;;;;;;;14.37;3.47;;;8.40;99.90;;;;;;5102116;28;20202;-79
2023/12/13 07:19:09;;;;;;;10.77;3.47;;;8.40;99.90;;;;;;5102464;28;20178;-78
2023/12/13 07:21:35;;;;;;;15.33;3.80;;;8.40;99.90;;;;;;5103226;28;20553;-79
2023/12/13 07:24:02;;;;;;;11.40;3.37;;;8.40;99.90;;;;;;5101197;28;20210;-79
2023/12/13 07:26:27;;;;;;;9.73;3.20;;;8.40;99.90;;;;;;5102953;28;20634;-79
2023/12/13 07:28:53;;;;;;;11.20;3.63;;;8.40;99.90;;;;;;5101605;28;20194;-79
2023/12/13 07:31:18;;;;;;;23.13;4.00;;;8.40;99.90;;;;;;5099808;28;20289;-79
2023/12/13 07:33:44;;;;;;;15.10;3.63;;;8.40;99.90;;;;;;5102225;28;20193;-79
2023/12/13 07:36:12;;;;;;;14.30;3.53;;;8.40;99.90;;;;;;5101774;28;20205;-79
2023/12/13 07:38:38;;;;;;;12.17;3.00;;;8.40;99.90;;;;;;5104909;28;20688;-79
2023/12/13 07:41:04;;;;;;;14.17;3.53;;;8.40;99.90;;;;;;5104806;28;20174;-78
2023/12/13 07:43:30;;;;;;;14.37;3.60;;;8.40;99.90;;;;;;5105506;28;20205;-79
2023/12/13 07:45:55;;;;;;;17.07;3.60;;;8.40;99.90;;;;;;5105766;28;20719;-79
2023/12/13 07:48:22;;;;;;;11.73;3.27;;;8.40;99.90;;;;;;5106456;28;20194;-79
2023/12/13 07:50:48;;;;;;;15.87;3.63;;;8.40;99.90;;;;;;5104496;28;20175;-78
2023/12/13 07:53:13;;;;;;;11.10;3.10;;;8.40;99.90;;;;;;5106222;28;20304;-79
2023/12/13 07:55:39;;;;;;;16.20;3.53;;;8.30;99.90;;;;;;5105116;28;20201;-78
2023/12/13 07:58:04;;;;;;;9.77;3.40;;;8.40;99.90;;;;;;5106016;28;20575;-78
2023/12/13 08:00:30;;;;;;;19.17;4.00;;;8.40;99.90;;;;;;5106378;28;20178;-79
2023/12/13 08:02:55;;;;;;;13.33;3.20;;;8.40;99.90;;;;;;5104881;28;20170;-79
2023/12/13 08:05:21;;;;;;;19.20;3.57;;;8.40;99.90;;;;;;5104810;28;20256;-79
2023/12/13 08:07:47;;;;;;;14.43;4.00;;;8.40;99.90;;;;;;5106283;28;20198;-79
2023/12/13 08:10:12;;;;;;;11.00;3.27;;;8.40;99.90;;;;;;5107400;28;20193;-79
2023/12/13 08:12:41;;;;;;;16.13;3.63;;;8.40;99.90;;;;;;5106929;28;20548;-79
2023/12/13 08:15:07;;;;;;;18.00;3.90;;;8.40;99.90;;;;;;5106741;28;20237;-78
2023/12/13 08:17:33;;;;;;;10.03;3.73;;;8.40;99.90;;;;;;5102137;28;20202;-78
2023/12/13 08:20:00;;;;;;;11.57;3.33;;;8.40;99.90;;;;;;5104921;28;20228;-78
2023/12/13 08:22:25;;;;;;;16.30;3.83;;;8.40;99.90;;;;;;5103392;28;20262;-78
2023/12/13 08:24:51;;;;;;;18.13;3.50;;;8.40;99.90;;;;;;5104404;28;20194;-78
2023/12/13 08:27:16;;;;;;;13.47;3.30;;;8.40;99.90;;;;;;5104734;28;20205;-78
2023/12/13 08:29:42;;;;;;;8.83;3.10;;;8.50;99.90;;;;;;5104922;28;20179;-77
2023/12/13 08:32:08;;;;;;;14.00;3.73;;;8.50;99.90;;;;;;5102589;28;20201;-78
2023/12/13 08:34:33;;;;;;;10.93;3.70;;;8.40;99.90;;;;;;5102898;28;20174;-78
2023/12/13 08:37:00;;;;;;;13.47;4.67;;;8.40;99.90;;;;;;5104061;28;20589;-78
2023/12/13 08:39:26;;;;;;;10.13;4.03;;;8.40;99.90;;;;;;5103972;28;20171;-78
2023/12/13 08:41:52;;;;;;;12.80;3.97;;;8.50;99.90;;;;;;5103669;28;20174;-78
2023/12/13 08:44:18;;;;;;;17.13;4.13;;;8.50;99.90;;;;;;5102825;28;20548;-78
2023/12/13 08:46:45;;;;;;;14.60;4.17;;;8.50;99.90;;;;;;5103707;28;20235;-78
2023/12/13 08:49:11;;;;;;;17.03;4.30;;;8.50;99.90;;;;;;5102084;28;20224;-78
2023/12/13 08:51:37;;;;;;;12.50;4.10;;;8.50;99.90;;;;;;5102244;28;20174;-78
2023/12/13 08:54:03;;;;;;;10.73;3.80;;;8.50;99.90;;;;;;5102013;28;20182;-78
2023/12/13 08:56:29;;;;;;;18.40;4.30;;;8.50;99.90;;;;;;5103401;28;20201;-78
2023/12/13 08:58:54;;;;;;;21.27;4.50;;;8.60;99.90;;;;;;5104158;28;20181;-78
2023/12/13 09:01:20;;;;;;;14.13;4.00;;;8.60;99.90;;;;;;5103240;28;20190;-78
2023/12/13 09:03:46;;;;;;;17.43;4.23;;;8.80;99.90;;;;;;5105241;28;20173;-78
2023/12/13 09:06:14;;;;;;;15.83;4.27;;;8.60;99.90;;;;;;5098946;28;20186;-79
2023/12/13 09:08:40;;;;;;;15.40;4.07;;;8.70;99.90;;;;;;5101587;28;20226;-79
2023/12/13 09:11:05;;;;;;;10.73;4.47;;;8.60;99.90;;;;;;5094920;28;20180;-78
2023/12/13 09:13:32;;;;;;;13.03;4.37;;;8.70;99.90;;;;;;5099509;28;20209;-78
2023/12/13 09:15:58;;;;;;;12.77;4.37;;;8.70;99.90;;;;;;5104249;28;20198;-78
2023/12/13 09:18:24;;;;;;;10.07;4.10;;;8.70;99.90;;;;;;5103688;28;20211;-79
2023/12/13 09:20:49;;;;;;;16.47;4.80;;;8.70;99.90;;;;;;5103056;28;20166;-78
2023/12/13 09:23:25;;;;;;;16.17;4.93;;;8.70;99.90;;;;;;5102300;28;20208;-78
2023/12/13 09:25:51;;;;;;;11.30;4.67;;;8.70;99.90;;;;;;5102989;28;20209;-78
2023/12/13 09:28:17;;;;;;;13.67;4.67;;;9.00;99.90;;;;;;5100121;28;20291;-78
2023/12/13 09:30:44;;;;;;;14.00;4.97;;;8.70;99.90;;;;;;5101447;28;20190;-78
2023/12/13 09:33:16;;;;;;;14.23;5.23;;;8.80;99.90;;;;;;5094465;28;20547;-78
2023/12/13 09:35:42;;;;;;;13.83;4.97;;;8.80;99.90;;;;;;5073244;28;20187;-78
2023/12/13 09:38:08;;;;;;;15.77;4.43;;;8.80;99.90;;;;;;5057504;28;20328;-78
2023/12/13 09:40:33;;;;;;;12.23;4.50;;;8.80;99.90;;;;;;5075309;28;20171;-78
2023/12/13 09:43:00;;;;;;;13.30;4.37;;;8.80;99.90;;;;;;5057672;28;20646;-77
2023/12/13 09:45:28;;;;;;;18.10;4.93;;;8.90;99.90;;;;;;5058806;28;20530;-77
2023/12/13 09:47:55;;;;;;;13.03;4.43;;;8.90;99.90;;;;;;5075105;28;20195;-77
2023/12/13 09:50:22;;;;;;;15.40;4.50;;;8.90;99.90;;;;;;5074555;28;20175;-77
2023/12/13 09:52:48;;;;;;;15.60;4.73;;;9.00;99.90;;;;;;5075689;28;20199;-78
2023/12/13 09:55:15;;;;;;;12.73;4.93;;;9.00;99.90;;;;;;5068212;28;20556;-77
2023/12/13 09:57:41;;;;;;;15.50;5.47;;;9.00;99.90;;;;;;5078359;28;20204;-77
2023/12/13 10:00:07;;;;;;;16.97;4.93;;;8.90;99.90;;;;;;5078366;28;20179;-77
2023/12/13 10:02:33;;;;;;;16.07;4.53;;;9.10;99.90;;;;;;5062764;28;20187;-77
2023/12/13 10:04:59;;;;;;;12.33;4.50;;;9.00;99.90;;;;;;5058625;28;20193;-78
2023/12/13 10:07:27;;;;;;;16.53;5.03;;;9.00;99.90;;;;;;5057475;28;20214;-78
2023/12/13 10:09:55;;;;;;;16.03;4.10;;;9.00;99.90;;;;;;5090436;28;20183;-78
2023/12/13 10:12:21;;;;;;;11.90;3.60;;;9.00;99.90;;;;;;5095762;28;20186;-78
2023/12/13 10:14:46;;;;;;;14.33;3.90;;;9.00;99.90;;;;;;5069244;28;20258;-78
2023/12/13 10:17:12;;;;;;;12.53;3.53;;;9.00;99.90;;;;;;5075075;28;20693;-78
2023/12/13 10:19:37;;;;;;;15.10;3.33;;;9.00;99.90;;;;;;5072768;28;20282;-77
2023/12/13 10:22:08;;;;;;;10.73;3.17;;;8.90;99.90;;;;;;5077383;28;20186;-78
2023/12/13 10:24:34;;;;;;;11.03;3.50;;;9.00;99.90;;;;;;5094519;28;20181;-78
2023/12/13 10:27:00;;;;;;;13.00;3.60;;;8.90;99.90;;;;;;5086812;28;20199;-78
2023/12/13 10:29:25;;;;;;;16.37;3.60;;;9.00;99.90;;;;;;5073923;28;20232;-76
2023/12/13 10:31:51;;;;;;;18.07;4.03;;;9.00;99.90;;;;;;5078064;28;20229;-78
2023/12/13 10:34:16;;;;;;;15.87;4.13;;;9.00;99.90;;;;;;5079733;28;20271;-78
2023/12/13 10:36:43;;;;;;;13.47;3.67;;;9.00;99.90;;;;;;5096063;28;20190;-78
2023/12/13 10:39:13;;;;;;;13.37;4.37;;;9.00;99.90;;;;;;5077189;28;20195;-78
2023/12/13 10:41:42;;;;;;;12.33;3.83;;;9.00;99.90;;;;;;5067448;28;20197;-78
2023/12/13 10:44:09;;;;;;;18.97;3.63;;;9.10;99.90;;;;;;5085785;28;20657;-77
2023/12/13 10:46:37;;;;;;;15.43;3.60;;;9.10;99.90;;;;;;5057767;28;20175;-77
2023/12/13 10:49:06;;;;;;;11.60;3.00;;;9.10;99.90;;;;;;5076414;28;20179;-77
2023/12/13 10:51:36;;;;;;;9.87;2.93;;;9.20;99.90;;;;;;5059231;28;20195;-77
2023/12/13 10:54:02;;;;;;;10.70;3.10;;;9.20;99.90;;;;;;5075908;28;20177;-77
2023/12/13 10:56:27;;;;;;;9.73;2.40;;;9.30;99.90;;;;;;5061300;28;20175;-78
2023/12/13 10:58:53;;;;;;;8.10;2.07;;;9.30;99.90;;;;;;5058013;28;20195;-77
2023/12/13 11:01:20;;;;;;;5.70;2.20;;;9.30;99.90;;;;;;5078006;28;20713;-77
2023/12/13 11:04:12;;;;;;;6.67;1.80;;;9.30;99.90;;;;;;5077924;28;20175;-77
2023/12/13 11:06:38;;;;;;;6.93;1.77;;;9.30;99.90;;;;;;5055736;28;20254;-78
2023/12/13 11:09:14;;;;;;;8.00;1.67;;;9.30;99.90;;;;;;5076867;28;20253;-77
2023/12/13 11:11:44;;;;;;;4.77;1.60;;;9.20;99.90;;;;;;5062239;28;20199;-77
2023/12/13 11:14:15;;;;;;;7.50;1.50;;;9.20;99.90;;;;;;5061898;28;20179;-77
2023/12/13 11:16:45;;;;;;;4.37;1.30;;;9.20;99.90;;;;;;5061354;28;20186;-77
2023/12/13 11:19:12;;;;;;;3.27;1.30;;;9.10;99.90;;;;;;5051276;28;20184;-77
2023/12/13 11:21:40;;;;;;;5.30;1.13;;;9.10;99.90;;;;;;5059441;28;20179;-77
2023/12/13 11:24:15;;;;;;;4.70;1.63;;;9.10;99.90;;;;;;5060885;28;20174;-77
2023/12/13 11:27:02;;;;;;;5.97;1.27;;;9.10;99.90;;;;;;5054732;28;20191;-78
2023/12/13 11:29:30;;;;;;;5.03;0.97;;;9.10;99.90;;;;;;5062139;28;20227;-78
2023/12/13 11:32:04;;;;;;;3.33;0.80;;;9.10;99.90;;;;;;5045181;28;20218;-78
2023/12/13 11:34:47;;;;;;;2.20;0.70;;;9.00;99.90;;;;;;5071270;28;20231;-77
2023/12/13 11:37:14;;;;;;;3.87;0.90;;;9.00;99.90;;;;;;5064669;28;20257;-78
2023/12/13 11:39:41;;;;;;;0.77;0.60;;;9.00;99.90;;;;;;5064164;28;20185;-78
2023/12/13 11:42:08;;;;;;;1.90;0.70;;;9.00;99.90;;;;;;5065051;28;20226;-77
2023/12/13 11:44:36;;;;;;;3.07;0.70;;;9.00;99.90;;;;;;5063053;28;20195;-77
2023/12/13 11:47:06;;;;;;;2.27;0.70;;;9.10;99.90;;;;;;5082350;28;20233;-77
2023/12/13 11:49:32;;;;;;;2.43;0.70;;;8.90;99.90;;;;;;5059149;28;20252;-77
2023/12/13 11:52:00;;;;;;;2.83;0.70;;;8.90;99.90;;;;;;5063532;28;20242;-77
2023/12/13 11:54:26;;;;;;;4.73;0.47;;;8.90;99.90;;;;;;5063180;28;20175;-77
2023/12/13 11:56:51;;;;;;;1.63;0.60;;;8.90;99.90;;;;;;5066381;28;20184;-77
2023/12/13 11:59:21;;;;;;;4.43;0.70;;;9.00;99.90;;;;;;5083907;28;20229;-77
2023/12/13 12:01:47;;;;;;;2.23;0.80;;;8.90;99.90;;;;;;5083010;28;20210;-78
2023/12/13 12:04:15;;;;;;;1.57;0.73;;;8.90;99.90;;;;;;5064995;28;20178;-77
2023/12/13 12:06:52;;;;;;;6.60;0.97;;;9.00;99.90;;;;;;5073194;28;20199;-77
2023/12/13 12:09:21;;;;;;;3.83;0.97;;;9.80;99.90;;;;;;5061190;28;20183;-78
2023/12/13 12:11:53;;;;;;;4.20;1.10;;;9.00;99.90;;;;;;5061873;28;20207;-78
2023/12/13 12:14:18;;;;;;;2.70;0.90;;;9.00;99.90;;;;;;5043686;28;20685;-78
2023/12/13 12:16:44;;;;;;;2.00;0.67;;;9.10;99.90;;;;;;5044042;28;20184;-79
2023/12/13 12:19:10;;;;;;;1.27;0.90;;;9.10;99.90;;;;;;5062277;28;20209;-78
2023/12/13 12:21:36;;;;;;;1.37;0.80;;;9.30;99.90;;;;;;5043893;28;20194;-78
2023/12/13 12:24:02;;;;;;;2.63;0.87;;;9.30;99.90;;;;;;5044338;28;20180;-78
2023/12/13 12:26:28;;;;;;;1.23;0.77;;;9.40;99.90;;;;;;5071657;28;20555;-78
2023/12/13 12:28:54;;;;;;;1.67;0.70;;;9.40;99.90;;;;;;5062816;28;20195;-77
2023/12/13 12:31:20;;;;;;;5.00;1.00;;;9.50;99.90;;;;;;5063669;28;20277;-78
2023/12/13 12:33:53;;;;;;;1.93;0.80;;;9.50;99.90;;;;;;5082517;28;20182;-77
2023/12/13 12:36:18;;;;;;;4.53;1.00;;;9.50;99.90;;;;;;5081024;28;20278;-78
2023/12/13 12:38:46;;;;;;;6.50;1.00;;;9.60;99.90;;;;;;5064592;28;20202;-77
2023/12/13 12:41:12;;;;;;;3.63;0.90;;;9.60;99.90;;;;;;5064449;28;20252;-78
2023/12/13 12:43:39;;;;;;;3.87;1.00;;;9.60;99.90;;;;;;5081531;28;20171;-77
2023/12/13 12:46:05;;;;;;;2.20;0.80;;;9.60;99.90;;;;;;5057781;28;20270;-78
2023/12/13 12:48:31;;;;;;;6.80;1.30;;;9.60;99.90;;;;;;5060407;28;20698;-77